Time;durP1;ratioP1;P1;durP2;ratioP2;P2;SDS_P1;SDS_P2;PMS_P1;PMS_P2;Temp;Humidity;BMP_temperature;BMP_pressure;BME280_temperature;BME280_humidity;BME280_pressure;Samples;Min_cycle;Max_cycle;Signal;HPM_P1;HPM_P2
2022/07/20 00:00:13;;;;;;;11.80;5.00;;;19.70;6.40;;;;;;5034889;28;20478;-85
2022/07/20 00:02:40;;;;;;;14.73;4.90;;;19.70;5.80;;;;;;5031243;28;20484;-85
2022/07/20 00:05:09;;;;;;;12.00;4.60;;;19.70;5.90;;;;;;5014943;28;20469;-85
2022/07/20 00:07:36;;;;;;;9.83;4.17;;;19.70;5.60;;;;;;5016088;28;20501;-85
2022/07/20 00:12:48;;;;;;;10.53;5.23;;;19.80;6.00;;;;;;5032153;28;20472;-84
2022/07/20 00:15:14;;;;;;;10.70;4.70;;;19.90;4.60;;;;;;5035792;28;20452;-86
2022/07/20 00:17:41;;;;;;;8.63;4.37;;;20.00;4.50;;;;;;5018062;28;20545;-85
2022/07/20 00:20:11;;;;;;;11.60;4.90;;;20.20;4.70;;;;;;5014914;28;20544;-84
2022/07/20 00:22:38;;;;;;;14.13;6.53;;;20.10;4.60;;;;;;5015855;28;20473;-85
2022/07/20 00:25:05;;;;;;;11.77;4.40;;;20.00;5.70;;;;;;5022087;28;20453;-85
2022/07/20 00:27:32;;;;;;;11.90;5.33;;;19.90;8.20;;;;;;5034299;28;20880;-85
2022/07/20 00:29:59;;;;;;;19.37;5.10;;;19.80;7.40;;;;;;5023472;28;20829;-85
2022/07/20 00:32:26;;;;;;;21.50;5.07;;;19.70;8.90;;;;;;5014576;28;20566;-85
2022/07/20 00:34:52;;;;;;;14.93;5.80;;;19.60;9.40;;;;;;5024014;28;20486;-85
2022/07/20 00:37:20;;;;;;;21.80;5.77;;;19.50;8.70;;;;;;5034011;28;20453;-85
2022/07/20 00:39:48;;;;;;;10.87;4.70;;;19.40;10.20;;;;;;5016116;28;20465;-85
2022/07/20 00:42:14;;;;;;;10.67;4.87;;;19.30;11.20;;;;;;5014632;28;20469;-85
2022/07/20 00:44:41;;;;;;;9.83;4.70;;;19.40;11.40;;;;;;5030472;28;20486;-85
2022/07/20 00:47:08;;;;;;;8.17;4.37;;;19.20;10.30;;;;;;5033942;28;20475;-85
2022/07/20 00:49:35;;;;;;;9.37;4.37;;;19.20;9.70;;;;;;5018729;28;20446;-85
2022/07/20 00:52:02;;;;;;;11.47;5.03;;;19.40;9.00;;;;;;5021959;28;20903;-85
2022/07/20 00:54:30;;;;;;;9.27;4.50;;;19.50;8.20;;;;;;5033676;28;20456;-85
2022/07/20 00:56:57;;;;;;;15.30;3.93;;;19.70;7.20;;;;;;5026583;28;20461;-85
2022/07/20 00:59:24;;;;;;;7.67;4.07;;;19.80;6.50;;;;;;5013670;28;20535;-86
2022/07/20 01:01:51;;;;;;;7.43;3.63;;;19.80;6.20;;;;;;5018805;28;20494;-86
2022/07/20 01:04:18;;;;;;;10.20;3.90;;;19.90;6.50;;;;;;5033459;28;20445;-86
2022/07/20 01:06:45;;;;;;;8.43;4.10;;;20.10;6.60;;;;;;5014893;28;20480;-86
2022/07/20 01:09:12;;;;;;;10.83;4.30;;;19.80;6.70;;;;;;5013609;28;20859;-85
2022/07/20 01:11:40;;;;;;;9.07;4.77;;;19.80;7.30;;;;;;5029874;28;20473;-86
2022/07/20 01:14:08;;;;;;;21.87;5.23;;;19.70;7.80;;;;;;5033412;28;20474;-86
2022/07/20 01:16:37;;;;;;;11.83;4.70;;;19.70;7.80;;;;;;5017586;28;20454;-86
2022/07/20 01:19:05;;;;;;;7.77;4.30;;;19.70;6.90;;;;;;5020724;28;20449;-86
2022/07/20 01:21:39;;;;;;;8.20;5.40;;;19.90;6.70;;;;;;5033124;28;20868;-86
2022/07/20 01:24:06;;;;;;;9.80;4.13;;;20.00;6.40;;;;;;5023873;28;20457;-86
2022/07/20 01:26:33;;;;;;;11.60;5.30;;;20.00;6.00;;;;;;5020870;28;20449;-86
2022/07/20 01:29:00;;;;;;;8.60;3.90;;;20.20;5.00;;;;;;5028267;28;20449;-85
2022/07/20 01:31:27;;;;;;;5.77;3.50;;;20.20;4.70;;;;;;5013478;28;20558;-85
2022/07/20 01:33:54;;;;;;;6.50;3.60;;;20.20;4.70;;;;;;5033184;28;20450;-85
2022/07/20 01:36:21;;;;;;;7.23;4.00;;;20.20;4.60;;;;;;5033329;28;20450;-85
2022/07/20 01:38:49;;;;;;;6.93;3.77;;;20.40;4.80;;;;;;5032355;28;20964;-85
2022/07/20 01:41:15;;;;;;;13.30;4.20;;;20.20;4.70;;;;;;5033331;28;20966;-85
2022/07/20 01:43:42;;;;;;;9.13;4.63;;;20.10;5.80;;;;;;5015236;28;20454;-85
2022/07/20 01:46:09;;;;;;;8.60;3.87;;;19.90;6.90;;;;;;5013394;28;20457;-85
2022/07/20 01:48:36;;;;;;;7.90;3.97;;;19.90;6.10;;;;;;5028222;28;20472;-85
2022/07/20 01:51:03;;;;;;;10.10;5.00;;;20.00;5.80;;;;;;5033041;28;20449;-85
2022/07/20 01:53:30;;;;;;;11.70;4.20;;;19.80;6.90;;;;;;5018107;28;20469;-85
2022/07/20 01:55:58;;;;;;;7.40;4.30;;;19.70;9.00;;;;;;5012921;28;20576;-85
2022/07/20 01:58:25;;;;;;;7.93;4.37;;;19.40;10.00;;;;;;5026038;28;20454;-84
2022/07/20 02:00:52;;;;;;;7.73;4.67;;;19.30;10.80;;;;;;5025938;28;20456;-85
2022/07/20 02:03:19;;;;;;;11.53;4.70;;;19.20;11.40;;;;;;5012944;28;20863;-85
2022/07/20 02:05:47;;;;;;;8.00;4.23;;;19.30;11.70;;;;;;5017474;28;20423;-85
2022/07/20 02:08:14;;;;;;;8.90;4.37;;;19.20;10.10;;;;;;5029890;28;20481;-85
2022/07/20 02:10:41;;;;;;;12.77;4.80;;;19.20;10.40;;;;;;5012746;28;20540;-85
2022/07/20 02:13:09;;;;;;;8.30;4.67;;;19.20;10.30;;;;;;5013954;28;21085;-85
2022/07/20 02:18:21;;;;;;;15.93;5.53;;;19.40;9.70;;;;;;5014941;28;20495;-85
2022/07/20 02:20:48;;;;;;;7.10;4.20;;;19.40;9.30;;;;;;5032530;28;20456;-85
2022/07/20 02:23:15;;;;;;;8.30;4.30;;;19.40;9.20;;;;;;5031166;28;20479;-86
2022/07/20 02:25:41;;;;;;;8.50;4.13;;;19.50;7.80;;;;;;5012591;28;20461;-85
2022/07/20 02:28:10;;;;;;;7.13;3.90;;;19.70;7.40;;;;;;5012551;28;20485;-86
2022/07/20 02:30:38;;;;;;;8.50;4.27;;;19.80;7.20;;;;;;5012765;28;20540;-85
2022/07/20 02:33:05;;;;;;;9.57;3.83;;;20.00;6.90;;;;;;5022692;28;20510;-85
2022/07/20 02:35:32;;;;;;;8.83;5.00;;;19.90;6.50;;;;;;5032061;28;20462;-86
2022/07/20 02:37:59;;;;;;;10.10;4.47;;;20.10;5.90;;;;;;5012478;28;20459;-85
2022/07/20 02:40:26;;;;;;;12.20;4.37;;;20.20;5.50;;;;;;5012592;28;20462;-85
2022/07/20 02:42:53;;;;;;;10.50;4.70;;;20.20;5.00;;;;;;5031479;28;20471;-85
2022/07/20 02:45:22;;;;;;;9.00;3.40;;;20.20;4.70;;;;;;5032203;28;20491;-86
2022/07/20 02:47:49;;;;;;;7.33;3.97;;;20.20;4.70;;;;;;5030843;28;20454;-85
2022/07/20 02:50:16;;;;;;;10.03;4.37;;;20.30;4.70;;;;;;5032234;28;20457;-85
2022/07/20 02:52:44;;;;;;;9.43;4.50;;;20.20;4.70;;;;;;5019240;28;20469;-85
2022/07/20 02:55:11;;;;;;;7.53;4.17;;;20.30;4.80;;;;;;5012274;28;20512;-85
2022/07/20 02:57:38;;;;;;;6.90;3.63;;;20.10;4.60;;;;;;5012546;28;20939;-85
2022/07/20 03:00:06;;;;;;;7.57;5.10;;;20.10;6.10;;;;;;5014855;28;20532;-84
2022/07/20 03:02:34;;;;;;;10.53;5.20;;;20.00;8.40;;;;;;5029019;28;20480;-85
2022/07/20 03:05:01;;;;;;;8.00;5.00;;;19.70;8.90;;;;;;5017707;28;20540;-85
2022/07/20 03:07:28;;;;;;;9.17;4.07;;;19.50;10.30;;;;;;5027760;28;20472;-84
2022/07/20 03:09:55;;;;;;;9.33;5.23;;;19.30;10.50;;;;;;5035957;28;20458;-85
2022/07/20 03:12:22;;;;;;;9.83;5.07;;;19.20;11.60;;;;;;5031600;28;20480;-85
2022/07/20 03:14:49;;;;;;;7.17;4.07;;;19.20;10.40;;;;;;5018647;28;20544;-85
2022/07/20 03:17:16;;;;;;;13.03;5.03;;;19.20;9.90;;;;;;5016998;28;20904;-85
2022/07/20 03:19:44;;;;;;;8.60;3.90;;;19.10;10.80;;;;;;5022676;28;20861;-85
2022/07/20 03:22:11;;;;;;;7.93;4.30;;;19.30;10.50;;;;;;5035676;28;20490;-84
2022/07/20 03:24:38;;;;;;;9.67;4.67;;;19.50;9.40;;;;;;5018367;28;20519;-85
2022/07/20 03:27:05;;;;;;;9.10;4.40;;;19.60;9.60;;;;;;5016071;28;20457;-85
2022/07/20 03:29:32;;;;;;;9.00;4.80;;;19.80;9.10;;;;;;5026397;28;20454;-84
2022/07/20 03:31:59;;;;;;;9.13;4.80;;;19.80;8.90;;;;;;5026138;28;20550;-85
2022/07/20 03:34:26;;;;;;;8.37;4.80;;;19.70;10.10;;;;;;5015180;28;20449;-85
2022/07/20 03:36:54;;;;;;;12.67;4.87;;;19.70;10.10;;;;;;5015617;28;20454;-84
2022/07/20 03:39:21;;;;;;;9.07;4.53;;;19.70;10.20;;;;;;5015921;28;20449;-85
2022/07/20 03:41:48;;;;;;;7.93;4.00;;;19.60;10.10;;;;;;5026705;28;20469;-85
2022/07/20 03:44:15;;;;;;;10.10;5.20;;;19.50;10.70;;;;;;5034924;28;20467;-85
2022/07/20 03:46:42;;;;;;;8.83;4.40;;;19.40;11.50;;;;;;5031541;28;20444;-85
2022/07/20 03:49:08;;;;;;;10.23;4.60;;;19.40;11.80;;;;;;5034996;28;21015;-86
2022/07/20 03:51:38;;;;;;;8.83;4.37;;;19.30;14.10;;;;;;5034209;28;20472;-86
2022/07/20 03:54:07;;;;;;;9.50;5.10;;;19.30;13.10;;;;;;5034976;28;20532;-84
2022/07/20 03:56:39;;;;;;;11.47;5.20;;;19.40;11.80;;;;;;5034122;28;20494;-85
2022/07/20 03:59:06;;;;;;;14.63;5.20;;;19.40;11.80;;;;;;5035138;28;20452;-85
2022/07/20 04:01:33;;;;;;;13.03;5.17;;;19.50;11.90;;;;;;5019479;28;20481;-85
2022/07/20 04:04:00;;;;;;;10.80;5.23;;;19.90;10.30;;;;;;5015614;28;20465;-84
2022/07/20 04:06:27;;;;;;;9.07;5.10;;;20.00;9.80;;;;;;5020796;28;20460;-86
2022/07/20 04:08:54;;;;;;;8.60;4.77;;;20.20;9.30;;;;;;5023453;28;20496;-85
2022/07/20 04:11:25;;;;;;;16.87;4.80;;;20.20;9.90;;;;;;5025962;28;20591;-87
2022/07/20 04:13:52;;;;;;;11.50;4.40;;;20.00;10.20;;;;;;5024435;28;20527;-84
2022/07/20 04:16:19;;;;;;;7.53;4.90;;;20.10;9.80;;;;;;5033993;28;20447;-85
2022/07/20 04:18:46;;;;;;;8.73;4.63;;;20.20;8.90;;;;;;5040703;28;20452;-85
2022/07/20 04:21:15;;;;;;;11.73;4.83;;;20.10;9.60;;;;;;5031951;28;20442;-85
2022/07/20 04:23:42;;;;;;;9.67;4.40;;;20.10;9.80;;;;;;5042722;28;20457;-85
2022/07/20 04:26:08;;;;;;;9.93;5.10;;;20.00;9.00;;;;;;5029224;28;20449;-85
2022/07/20 04:28:37;;;;;;;12.13;4.77;;;20.00;7.90;;;;;;5020603;28;20420;-86
2022/07/20 04:31:03;;;;;;;12.40;4.87;;;20.20;7.10;;;;;;5018278;28;20442;-86
2022/07/20 04:33:30;;;;;;;7.70;4.47;;;20.30;6.30;;;;;;5029810;28;20465;-85
2022/07/20 04:35:57;;;;;;;12.20;6.30;;;20.50;6.60;;;;;;5032180;28;20469;-86
2022/07/20 04:38:24;;;;;;;11.30;5.23;;;20.60;5.40;;;;;;5021026;28;20474;-86
2022/07/20 04:40:51;;;;;;;10.03;5.83;;;20.80;5.50;;;;;;5035369;28;20448;-87
2022/07/20 04:43:19;;;;;;;11.30;5.37;;;21.00;5.40;;;;;;5030486;28;20444;-88
2022/07/20 04:45:48;;;;;;;14.13;7.43;;;21.10;5.70;;;;;;5016554;28;20463;-86
2022/07/20 04:48:14;;;;;;;14.60;9.03;;;21.50;6.40;;;;;;5018002;28;20479;-85
2022/07/20 04:50:41;;;;;;;13.97;7.87;;;21.70;6.10;;;;;;5032777;28;20424;-85
2022/07/20 04:53:08;;;;;;;19.00;9.77;;;22.10;6.10;;;;;;5019981;28;20543;-85
2022/07/20 04:55:34;;;;;;;22.10;11.13;;;22.10;6.90;;;;;;5020857;28;20455;-85
2022/07/20 04:58:01;;;;;;;21.90;10.70;;;22.30;7.30;;;;;;5029116;28;20460;-85
2022/07/20 05:00:28;;;;;;;20.93;11.60;;;22.60;8.10;;;;;;5017406;28;20454;-85
2022/07/20 05:02:56;;;;;;;18.30;12.67;;;22.50;8.90;;;;;;5023110;28;20480;-85
2022/07/20 05:05:23;;;;;;;23.40;14.37;;;22.70;10.00;;;;;;5035090;28;20458;-85
2022/07/20 05:07:49;;;;;;;22.67;13.80;;;22.80;11.10;;;;;;5032667;28;20431;-85
2022/07/20 05:10:16;;;;;;;23.63;14.03;;;23.00;11.20;;;;;;5014268;28;20451;-85
2022/07/20 05:12:43;;;;;;;22.63;14.13;;;23.10;11.40;;;;;;5014959;28;20479;-85
2022/07/20 05:15:10;;;;;;;24.00;15.83;;;23.10;10.90;;;;;;5023828;28;20424;-86
2022/07/20 05:17:37;;;;;;;20.13;13.50;;;23.20;10.70;;;;;;5035415;28;20868;-84
2022/07/20 05:20:06;;;;;;;19.77;13.40;;;23.40;11.00;;;;;;5025119;28;20422;-84
2022/07/20 05:22:33;;;;;;;22.70;14.00;;;23.40;11.30;;;;;;5035059;28;20451;-84
2022/07/20 05:25:00;;;;;;;22.20;14.50;;;23.40;11.50;;;;;;5040531;28;20462;-82
2022/07/20 05:27:27;;;;;;;20.27;12.37;;;23.50;11.70;;;;;;5028810;28;20466;-84
2022/07/20 05:29:54;;;;;;;20.77;14.43;;;23.50;11.00;;;;;;5027110;28;20454;-83
2022/07/20 05:32:20;;;;;;;20.63;13.20;;;23.60;11.40;;;;;;5040575;28;20476;-83
2022/07/20 05:34:47;;;;;;;27.50;15.90;;;23.80;11.00;;;;;;5039964;28;20461;-83
2022/07/20 05:37:15;;;;;;;24.93;14.70;;;24.20;10.20;;;;;;5028225;28;21017;-84
2022/07/20 05:39:42;;;;;;;22.03;16.80;;;24.50;8.90;;;;;;5024004;28;20459;-85
2022/07/20 05:42:12;;;;;;;21.83;14.37;;;24.80;8.00;;;;;;5031905;28;20439;-85
2022/07/20 05:44:39;;;;;;;27.80;16.10;;;25.10;8.10;;;;;;5027233;28;20457;-84
2022/07/20 05:47:06;;;;;;;24.03;14.93;;;25.20;8.20;;;;;;5026195;28;20463;-83
2022/07/20 05:49:33;;;;;;;24.90;17.10;;;25.60;7.00;;;;;;5036897;28;20469;-84
2022/07/20 05:52:00;;;;;;;21.23;15.33;;;25.80;6.70;;;;;;5029900;28;20473;-84
2022/07/20 05:54:28;;;;;;;22.13;14.20;;;26.10;5.70;;;;;;5029666;28;20562;-85
2022/07/20 05:56:55;;;;;;;26.50;15.77;;;26.50;4.60;;;;;;5033296;28;20946;-84
2022/07/20 05:59:22;;;;;;;21.23;16.07;;;26.60;4.20;;;;;;5038166;28;20423;-85
2022/07/20 06:01:48;;;;;;;26.37;15.70;;;26.80;3.60;;;;;;5037237;28;20500;-84
2022/07/20 06:04:16;;;;;;;23.23;15.97;;;26.90;2.50;;;;;;5027280;28;20479;-84
2022/07/20 06:06:42;;;;;;;21.30;15.43;;;27.00;1.90;;;;;;5029366;28;20542;-84
2022/07/20 06:09:10;;;;;;;25.37;17.30;;;27.10;2.60;;;;;;5032026;28;20846;-84
2022/07/20 06:11:38;;;;;;;24.63;16.90;;;27.10;2.00;;;;;;5029208;28;20526;-84
2022/07/20 06:14:05;;;;;;;30.47;16.10;;;27.30;1.50;;;;;;5025335;28;20794;-83
2022/07/20 06:16:32;;;;;;;24.30;16.50;;;27.50;1.60;;;;;;5029408;28;20453;-83
2022/07/20 06:18:58;;;;;;;23.40;16.47;;;27.20;2.00;;;;;;5035361;28;20440;-83
2022/07/20 06:21:25;;;;;;;22.60;16.53;;;27.20;1.50;;;;;;5035129;28;20431;-83
2022/07/20 06:23:52;;;;;;;28.30;16.50;;;27.20;1.70;;;;;;5032123;28;20448;-83
2022/07/20 06:26:19;;;;;;;25.20;16.20;;;27.80;1.80;;;;;;5023048;28;20461;-83
2022/07/20 06:28:47;;;;;;;26.40;17.27;;;28.00;1.90;;;;;;5021644;28;20444;-83
2022/07/20 06:31:14;;;;;;;22.90;17.20;;;28.00;1.00;;;;;;5029148;28;20437;-84
2022/07/20 06:33:40;;;;;;;29.50;16.73;;;27.70;1.70;;;;;;5020799;28;20448;-83
2022/07/20 06:36:08;;;;;;;28.50;18.47;;;27.30;1.50;;;;;;5023378;28;20454;-83
2022/07/20 06:38:34;;;;;;;23.90;16.73;;;26.90;1.40;;;;;;5027834;28;20445;-83
2022/07/20 06:41:02;;;;;;;23.47;18.53;;;26.70;3.50;;;;;;5035224;28;21062;-83
2022/07/20 06:43:35;;;;;;;23.77;16.87;;;26.70;4.40;;;;;;5035525;28;20443;-83
2022/07/20 06:46:10;;;;;;;24.70;17.20;;;26.70;4.00;;;;;;5037036;28;20896;-83
2022/07/20 07:16:52;;;;;;;22.40;17.27;;;28.00;1.00;;;;;;4993013;28;20461;-85
2022/07/20 07:19:18;;;;;;;32.53;19.57;;;27.80;1.00;;;;;;5000869;28;20483;-83
2022/07/20 07:21:45;;;;;;;25.50;17.83;;;27.80;1.00;;;;;;5005122;28;20545;-84
2022/07/20 07:24:13;;;;;;;20.90;15.50;;;27.50;1.00;;;;;;5005269;28;20485;-83
2022/07/20 07:26:40;;;;;;;19.93;16.53;;;27.60;1.70;;;;;;5004759;28;20439;-84
2022/07/20 07:29:07;;;;;;;26.33;17.23;;;27.50;1.60;;;;;;5004206;28;20453;-83
2022/07/20 07:31:34;;;;;;;19.20;14.87;;;27.50;1.00;;;;;;5005115;28;20452;-83
2022/07/20 07:34:01;;;;;;;23.23;16.17;;;27.80;1.00;;;;;;5004925;28;20457;-82
2022/07/20 07:36:28;;;;;;;24.13;16.80;;;27.50;1.00;;;;;;5005366;28;20464;-85
2022/07/20 07:38:55;;;;;;;20.70;16.57;;;27.20;1.00;;;;;;5006209;28;20455;-84
2022/07/20 07:41:23;;;;;;;22.20;15.40;;;27.30;1.00;;;;;;5003793;28;20460;-84
2022/07/20 07:43:50;;;;;;;27.93;15.67;;;27.30;1.00;;;;;;5004772;28;20461;-86
2022/07/20 07:46:17;;;;;;;20.50;15.93;;;27.30;1.50;;;;;;5007887;28;20893;-84
2022/07/20 07:48:43;;;;;;;25.50;16.23;;;27.70;1.70;;;;;;5009621;28;20427;-85
2022/07/20 07:51:10;;;;;;;24.03;16.37;;;28.20;1.00;;;;;;5009456;28;20426;-84
2022/07/20 07:53:37;;;;;;;20.37;15.93;;;28.30;1.00;;;;;;5009477;28;20561;-84
2022/07/20 07:56:04;;;;;;;29.97;16.33;;;27.90;1.00;;;;;;5009224;28;20439;-83
2022/07/20 07:58:32;;;;;;;17.83;15.63;;;27.40;1.00;;;;;;5009697;28;20432;-84
2022/07/20 08:00:59;;;;;;;29.93;16.07;;;27.40;1.00;;;;;;5010396;28;20458;-84
2022/07/20 08:03:26;;;;;;;21.37;15.80;;;27.30;1.50;;;;;;5009325;28;20478;-84
2022/07/20 08:05:53;;;;;;;25.03;16.50;;;27.00;2.30;;;;;;5011056;28;20457;-85
2022/07/20 08:08:20;;;;;;;29.50;18.40;;;27.40;1.60;;;;;;5009479;28;20435;-85
2022/07/20 08:10:46;;;;;;;22.13;16.20;;;27.50;1.60;;;;;;5007727;28;20450;-84
2022/07/20 08:13:13;;;;;;;32.80;15.27;;;27.80;1.00;;;;;;5009536;28;20562;-84
2022/07/20 08:15:41;;;;;;;22.33;16.20;;;27.50;1.10;;;;;;5009058;28;20950;-84
2022/07/20 08:18:08;;;;;;;24.13;15.10;;;27.50;1.00;;;;;;5010111;28;20445;-86
2022/07/20 08:20:35;;;;;;;21.07;15.57;;;27.70;1.00;;;;;;5008851;28;20529;-84
2022/07/20 08:23:08;;;;;;;28.40;16.00;;;27.90;1.00;;;;;;5008983;28;20451;-84
2022/07/20 08:25:39;;;;;;;27.70;16.97;;;28.80;1.00;;;;;;5008797;28;20458;-84
2022/07/20 08:28:11;;;;;;;25.40;16.27;;;29.40;1.00;;;;;;5008273;28;20429;-84
2022/07/20 08:30:38;;;;;;;23.93;16.67;;;29.50;1.00;;;;;;5010071;28;20429;-84
2022/07/20 08:33:06;;;;;;;27.50;15.50;;;29.90;1.00;;;;;;5009154;28;20435;-84
2022/07/20 08:35:40;;;;;;;22.20;17.53;;;29.90;1.00;;;;;;5009195;28;20458;-84
2022/07/20 08:38:13;;;;;;;22.87;16.00;;;30.20;1.00;;;;;;5008943;28;20511;-84
2022/07/20 08:40:40;;;;;;;23.80;15.20;;;30.20;1.00;;;;;;5009638;28;20480;-84
2022/07/20 08:43:07;;;;;;;26.60;15.67;;;30.10;1.00;;;;;;5009745;28;20463;-84
2022/07/20 08:45:37;;;;;;;24.40;15.73;;;29.80;1.00;;;;;;5008998;28;20441;-84
2022/07/20 08:48:08;;;;;;;25.90;16.13;;;28.90;1.00;;;;;;5009288;28;20429;-84
2022/07/20 08:50:43;;;;;;;28.60;15.13;;;28.40;1.00;;;;;;5008436;28;20458;-84
2022/07/20 08:53:10;;;;;;;29.93;16.83;;;28.00;1.00;;;;;;5008525;28;20477;-83
2022/07/20 08:55:37;;;;;;;24.47;16.30;;;27.90;1.00;;;;;;5008713;28;20453;-84
2022/07/20 08:58:05;;;;;;;29.60;16.33;;;27.50;1.00;;;;;;4998587;28;20454;-83
2022/07/20 09:00:34;;;;;;;25.93;18.57;;;27.40;1.60;;;;;;5000753;28;20482;-84
2022/07/20 09:03:08;;;;;;;20.83;17.43;;;27.30;2.50;;;;;;5000068;28;20484;-84
2022/07/20 09:05:40;;;;;;;31.57;17.10;;;27.00;2.80;;;;;;4999149;28;20950;-84
2022/07/20 09:08:13;;;;;;;28.27;15.87;;;26.90;2.90;;;;;;5000059;28;20428;-83
2022/07/20 09:10:46;;;;;;;20.93;16.03;;;26.80;4.20;;;;;;5000915;28;20827;-84
2022/07/20 09:13:18;;;;;;;24.33;16.60;;;26.90;4.70;;;;;;5000989;28;20448;-83
2022/07/20 09:15:54;;;;;;;21.17;15.70;;;27.00;3.30;;;;;;5000050;28;20454;-83
2022/07/20 09:18:36;;;;;;;21.60;15.10;;;27.10;2.60;;;;;;4998927;28;20465;-84
2022/07/20 09:21:16;;;;;;;27.73;17.00;;;27.40;3.70;;;;;;5000143;28;20452;-83
2022/07/20 09:24:02;;;;;;;25.87;14.60;;;27.50;2.50;;;;;;5000536;28;20446;-86
2022/07/20 09:33:07;;;;;;;25.90;16.03;;;28.10;1.00;;;;;;4994088;28;20817;-83
2022/07/20 09:36:03;;;;;;;31.80;15.87;;;28.90;1.10;;;;;;5000422;28;20465;-85
2022/07/20 09:38:35;;;;;;;26.90;16.63;;;29.60;1.00;;;;;;4997483;28;20470;-85
2022/07/20 09:41:07;;;;;;;19.60;16.60;;;31.00;1.00;;;;;;5000067;28;20481;-85
2022/07/20 09:43:46;;;;;;;25.30;16.03;;;31.10;1.00;;;;;;5000034;28;20471;-84
2022/07/20 09:46:15;;;;;;;21.27;15.30;;;31.60;1.00;;;;;;4999390;28;20955;-84
2022/07/20 09:48:44;;;;;;;21.90;14.60;;;31.90;1.00;;;;;;4999560;28;20792;-84
2022/07/20 09:51:19;;;;;;;21.93;14.33;;;32.40;1.00;;;;;;4999637;28;21033;-85
2022/07/20 09:53:46;;;;;;;27.17;14.70;;;32.90;1.00;;;;;;4999028;28;20461;-85
2022/07/20 09:56:16;;;;;;;17.43;15.13;;;32.20;1.00;;;;;;4999540;28;20466;-83
2022/07/20 09:58:45;;;;;;;18.03;15.13;;;31.60;1.00;;;;;;4998347;28;20453;-85
2022/07/20 10:01:14;;;;;;;23.90;15.40;;;31.60;1.00;;;;;;4998430;28;20846;-85
2022/07/20 10:03:42;;;;;;;21.43;15.20;;;31.60;1.00;;;;;;4999535;28;20432;-84
2022/07/20 10:06:09;;;;;;;23.77;14.93;;;31.10;1.00;;;;;;4998193;28;20435;-85
2022/07/20 10:08:37;;;;;;;23.30;15.07;;;31.30;1.00;;;;;;4998369;28;20454;-85
2022/07/20 10:11:04;;;;;;;18.45;13.85;;;30.90;1.00;;;;;;4997420;28;20445;-83
2022/07/20 10:13:31;;;;;;;25.40;14.50;;;31.60;1.00;;;;;;5001571;28;20210;-85
2022/07/20 10:16:04;;;;;;;40.00;15.60;;;32.40;1.00;;;;;;5002900;28;20456;-84
2022/07/20 10:18:31;;;;;;;19.47;12.90;;;32.10;1.00;;;;;;5000352;28;20465;-85
2022/07/20 10:20:58;;;;;;;19.20;13.40;;;31.70;1.00;;;;;;4998978;28;20460;-84
2022/07/20 10:23:31;;;;;;;20.17;13.40;;;31.60;1.00;;;;;;4999170;28;20720;-84
2022/07/20 10:26:01;;;;;;;18.23;12.90;;;31.30;1.00;;;;;;4998833;28;20421;-82
2022/07/20 10:28:31;;;;;;;22.50;13.33;;;31.20;1.00;;;;;;4997418;28;20508;-83
2022/07/20 10:31:00;;;;;;;18.93;12.80;;;31.60;1.00;;;;;;4995880;28;20888;-83
2022/07/20 10:33:28;;;;;;;29.43;12.93;;;32.40;1.00;;;;;;4996817;28;20569;-84
2022/07/20 10:36:41;;;;;;;19.10;13.20;;;32.20;1.00;;;;;;4997853;28;20439;-84
2022/07/20 10:38:42;;;;;;;20.30;11.10;;;32.30;1.00;;;;;;4999329;28;20454;-84
2022/07/20 10:44:27;;;;;;;14.50;8.03;;;33.20;1.00;;;;;;4998477;28;20432;-83
2022/07/20 10:46:54;;;;;;;11.43;8.07;;;32.50;1.00;;;;;;4997482;28;20456;-83
2022/07/20 10:50:02;;;;;;;11.00;7.63;;;33.20;1.00;;;;;;4998142;28;20453;-83
2022/07/20 10:52:31;;;;;;;12.00;8.77;;;32.70;1.00;;;;;;4996988;28;20451;-83
2022/07/20 10:54:57;;;;;;;23.83;9.27;;;32.60;1.00;;;;;;4996849;28;20446;-83
2022/07/20 10:57:28;;;;;;;18.47;9.57;;;33.40;1.00;;;;;;4997553;28;20440;-84
2022/07/20 11:00:16;;;;;;;22.60;8.20;;;33.90;1.00;;;;;;4998117;28;20437;-83
2022/07/20 11:02:43;;;;;;;22.00;9.50;;;33.60;1.00;;;;;;4975214;28;20470;-83
2022/07/20 11:05:21;;;;;;;10.50;8.70;;;33.10;1.00;;;;;;4979839;28;20443;-84
2022/07/20 11:07:48;;;;;;;11.53;8.07;;;33.50;1.00;;;;;;4979069;28;20793;-83
2022/07/20 11:10:25;;;;;;;15.00;9.60;;;33.80;1.00;;;;;;4979440;28;20796;-84
2022/07/20 11:12:58;;;;;;;12.27;7.70;;;32.90;1.00;;;;;;4998731;28;20476;-84
2022/07/20 11:15:37;;;;;;;13.90;9.60;;;32.60;1.00;;;;;;4996863;28;20449;-83
2022/07/20 11:18:04;;;;;;;14.60;8.20;;;32.00;1.00;;;;;;4995176;28;20536;-84
2022/07/20 11:20:31;;;;;;;15.00;8.63;;;31.70;1.00;;;;;;4996900;28;20481;-84
2022/07/20 11:22:58;;;;;;;10.47;7.27;;;30.90;1.00;;;;;;4999852;28;20822;-83
2022/07/20 11:25:26;;;;;;;11.73;8.73;;;31.40;1.00;;;;;;5000649;28;20460;-85
2022/07/20 11:28:12;;;;;;;12.57;9.10;;;31.90;1.00;;;;;;5001906;28;20810;-83
2022/07/20 11:30:46;;;;;;;11.83;7.63;;;32.10;1.00;;;;;;4999450;28;20921;-84
2022/07/20 11:33:13;;;;;;;12.00;7.27;;;32.40;1.00;;;;;;5001361;28;20456;-84
2022/07/20 11:35:40;;;;;;;12.40;8.67;;;32.10;1.00;;;;;;5000976;28;20448;-84
2022/07/20 11:38:16;;;;;;;13.00;7.47;;;32.80;1.00;;;;;;5001536;28;20879;-87
2022/07/20 11:40:42;;;;;;;12.77;7.77;;;33.50;1.00;;;;;;5000219;28;20825;-85
2022/07/20 11:43:15;;;;;;;17.90;6.63;;;33.30;1.00;;;;;;5000181;28;20561;-84
2022/07/20 11:45:42;;;;;;;10.23;6.10;;;33.00;1.00;;;;;;4999364;28;20903;-84
2022/07/20 11:48:20;;;;;;;10.37;5.70;;;33.40;1.00;;;;;;5000694;28;20432;-85
2022/07/20 11:50:47;;;;;;;7.30;5.30;;;33.60;1.00;;;;;;4998566;28;20472;-84
2022/07/20 11:53:24;;;;;;;12.50;6.13;;;34.10;1.00;;;;;;5000717;28;20488;-84
2022/07/20 11:56:00;;;;;;;10.70;5.20;;;34.30;1.00;;;;;;4999782;28;20457;-83
2022/07/20 11:59:01;;;;;;;11.10;6.83;;;34.80;1.00;;;;;;5000154;28;20491;-83
2022/07/20 12:01:31;;;;;;;10.77;6.30;;;34.30;1.00;;;;;;5000306;28;20459;-83
2022/07/20 12:04:02;;;;;;;9.50;7.10;;;35.20;1.00;;;;;;5001763;28;20497;-85
2022/07/20 12:06:31;;;;;;;12.40;5.90;;;35.50;1.00;;;;;;5001519;28;20420;-83
2022/07/20 12:09:06;;;;;;;8.00;5.50;;;36.20;1.00;;;;;;5001193;28;20428;-82
2022/07/20 12:11:33;;;;;;;8.13;5.27;;;35.50;1.00;;;;;;4999889;28;20481;-82
2022/07/20 12:16:49;;;;;;;12.57;7.13;;;34.30;1.00;;;;;;4999236;28;20533;-83
2022/07/20 12:19:20;;;;;;;8.47;6.50;;;33.80;1.00;;;;;;4999825;28;20855;-84
2022/07/20 12:21:49;;;;;;;10.47;6.03;;;34.00;1.00;;;;;;4999725;28;20460;-83
2022/07/20 12:24:20;;;;;;;9.17;5.23;;;34.10;1.00;;;;;;5000316;28;20432;-82
2022/07/20 12:26:48;;;;;;;7.70;5.27;;;33.80;1.00;;;;;;4999899;28;20456;-83
2022/07/20 12:29:22;;;;;;;10.37;4.63;;;33.80;1.00;;;;;;5000867;28;20428;-83
2022/07/20 12:32:20;;;;;;;10.80;6.17;;;33.80;1.00;;;;;;4998994;28;20486;-83
2022/07/20 12:34:50;;;;;;;17.33;6.43;;;35.00;1.00;;;;;;4999888;28;20554;-84
2022/07/20 12:37:20;;;;;;;11.13;6.13;;;35.10;1.00;;;;;;4992225;28;20439;-85
2022/07/20 12:39:54;;;;;;;12.20;6.47;;;34.80;1.00;;;;;;4980764;28;20450;-83
2022/07/20 12:42:27;;;;;;;11.73;5.90;;;34.70;1.00;;;;;;4980843;28;20580;-82
2022/07/20 12:45:01;;;;;;;9.10;6.17;;;35.30;1.00;;;;;;4980913;28;20461;-84
2022/07/20 12:47:29;;;;;;;8.90;5.87;;;36.60;1.00;;;;;;4980857;28;20430;-84
2022/07/20 12:49:59;;;;;;;9.70;5.60;;;36.50;1.00;;;;;;4980091;28;20462;-83
2022/07/20 12:52:27;;;;;;;9.07;6.00;;;36.10;1.00;;;;;;4980653;28;20471;-84
2022/07/20 12:55:10;;;;;;;9.23;5.77;;;35.60;1.00;;;;;;4979521;28;20483;-83
2022/07/20 12:57:37;;;;;;;8.63;5.73;;;36.20;1.00;;;;;;4980697;28;20433;-83
2022/07/20 13:00:14;;;;;;;9.27;6.47;;;36.40;1.00;;;;;;4979937;28;20549;-83
2022/07/20 13:02:44;;;;;;;10.30;6.10;;;35.90;1.00;;;;;;4980522;28;20570;-80
2022/07/20 13:05:20;;;;;;;9.37;5.70;;;35.20;1.00;;;;;;4980275;28;20436;-82
2022/07/20 13:07:48;;;;;;;10.47;6.70;;;35.60;1.00;;;;;;4978912;28;20488;-83
2022/07/20 13:10:20;;;;;;;10.30;6.00;;;36.40;1.00;;;;;;4979442;28;20538;-88
2022/07/20 13:12:51;;;;;;;10.17;6.10;;;37.20;1.00;;;;;;4979294;28;20514;-88
2022/07/20 13:15:22;;;;;;;10.00;6.50;;;36.50;1.00;;;;;;4996761;28;20823;-88
2022/07/20 13:17:49;;;;;;;8.57;6.17;;;35.80;1.00;;;;;;4997412;28;20433;-87
2022/07/20 13:20:18;;;;;;;8.83;5.87;;;36.30;1.00;;;;;;4996443;28;20446;-88
2022/07/20 13:22:49;;;;;;;10.87;7.30;;;35.70;1.00;;;;;;4995141;28;20515;-87
2022/07/20 13:25:16;;;;;;;10.17;6.13;;;35.30;1.00;;;;;;4996915;28;20482;-87
2022/07/20 13:27:45;;;;;;;9.53;6.70;;;35.40;1.00;;;;;;4999643;28;20468;-85
2022/07/20 13:30:16;;;;;;;8.43;6.50;;;36.20;1.00;;;;;;4995885;28;20487;-87
2022/07/20 13:32:46;;;;;;;9.20;6.00;;;36.50;1.00;;;;;;4995285;28;20532;-87
2022/07/20 13:35:15;;;;;;;11.60;6.87;;;37.10;1.00;;;;;;4994811;28;20536;-87
2022/07/20 13:37:41;;;;;;;8.93;6.50;;;37.60;1.00;;;;;;4995913;28;20528;-87